logo



Minimumtemperatur heute 0.0     Maximumtemperatur heute 0.0
Datum Zeit
MEZ
Lufttemperatur
C
Windrichtung
Grad
Wind Mittel
Km/h
Wind Min
Km/h
Wind Max
Km/h
rel. Feuchte
%
2017-12-11 13:40:00 0.0 90 0.3 0.1 2.3 0
2017-12-11 13:35:00 0.0 143 0.3 0.0 3.0 0
2017-12-11 13:30:00 0.0 197 0.2 0.0 2.0 0
2017-12-11 13:25:00 0.0 131 0.9 0.8 5.4 0
2017-12-11 13:20:00 0.0 114 0.2 0.0 3.6 0
2017-12-11 13:15:00 0.0 115 0.2 0.0 1.9 0
2017-12-11 13:10:00 0.0 149 0.3 0.0 3.0 0
2017-12-11 13:05:00 0.0 138 0.4 0.0 5.3 0
2017-12-11 13:00:00 0.0 178 0.2 0.0 2.7 0
2017-12-11 12:55:00 0.0 160 0.2 0.0 2.4 0
2017-12-11 12:50:00 0.0 124 0.5 0.0 3.7 0
2017-12-11 12:45:00 0.0 271 0.4 0.0 4.3 0
2017-12-11 12:40:00 0.0 119 0.2 0.0 2.1 0
2017-12-11 12:35:00 0.0 153 0.5 0.2 3.5 0
2017-12-11 12:30:00 0.0 82 0.5 0.1 5.8 0
2017-12-11 12:25:00 0.0 101 1.0 1.6 8.2 0
2017-12-11 12:20:00 0.0 111 1.0 0.7 6.0 0
2017-12-11 12:15:00 0.0 113 1.1 1.0 6.0 0
2017-12-11 12:10:00 0.0 127 0.5 0.0 3.6 0
2017-12-11 12:05:00 0.0 153 0.7 0.2 3.7 0
2017-12-11 12:00:00 0.0 138 0.6 0.3 5.4 0
2017-12-11 11:55:00 0.0 105 0.5 0.0 4.4 0
2017-12-11 11:50:00 0.0 114 0.7 0.0 4.9 0
2017-12-11 11:45:00 0.0 78 0.2 0.0 2.0 0
2017-12-11 11:40:00 0.0 148 0.3 0.0 3.0 0
2017-12-11 11:35:00 0.0 79 0.2 0.0 1.9 0
2017-12-11 11:30:00 0.0 125 0.3 0.0 3.4 0
2017-12-11 11:25:00 0.0 163 0.2 0.0 2.3 0
2017-12-11 11:20:00 0.0 141 0.4 0.0 3.4 0
2017-12-11 11:15:00 0.0 107 0.2 0.0 2.9 0
2017-12-11 11:10:00 0.0 127 0.3 0.0 2.9 0
2017-12-11 11:05:00 0.0 99 0.4 0.0 4.2 0
2017-12-11 11:00:00 0.0 145 1.1 1.5 6.1 0
2017-12-11 10:55:00 0.0 122 0.9 1.3 5.6 0
2017-12-11 10:50:00 0.0 169 0.9 1.3 5.6 0
2017-12-11 10:45:00 0.0 150 0.8 1.3 4.9 0
2017-12-11 10:40:00 0.0 150 0.6 0.3 6.2 0
2017-12-11 10:35:00 0.0 123 0.7 0.4 5.8 0
2017-12-11 10:30:00 0.0 65 0.9 2.0 4.6 0
2017-12-11 10:25:00 0.0 112 1.3 1.6 7.7 0
2017-12-11 10:20:00 0.0 115 0.9 1.5 6.2 0
2017-12-11 10:15:00 0.0 138 0.6 0.4 4.3 0
2017-12-11 10:10:00 0.0 128 0.9 1.6 4.9 0
2017-12-11 10:05:00 0.0 137 0.7 0.4 5.0 0
2017-12-11 10:00:00 0.0 82 0.3 0.0 3.8 0
2017-12-11 09:55:00 0.0 114 0.4 0.0 3.2 0
2017-12-11 09:50:00 0.0 145 1.0 0.2 6.4 0
2017-12-11 09:45:00 0.0 94 0.9 1.7 4.8 0
2017-12-11 09:40:00 0.0 139 0.2 0.0 2.3 0
2017-12-11 09:35:00 0.0 167 0.1 0.0 1.0 0
2017-12-11 09:30:00 0.0 118 0.1 0.0 1.5 0
2017-12-11 09:25:00 0.0 116 0.6 0.4 5.1 0
2017-12-11 09:20:00 0.0 136 1.3 2.0 7.5 0
2017-12-11 09:15:00 0.0 138 1.2 1.9 6.3 0
2017-12-11 09:10:00 0.0 116 1.3 2.0 6.9 0
2017-12-11 09:05:00 0.0 132 0.7 0.6 4.8 0
2017-12-11 09:00:00 0.0 86 0.3 0.0 3.1 0
2017-12-11 08:55:00 0.0 95 0.2 0.0 1.9 0
2017-12-11 08:50:00 0.0 97 0.4 0.0 3.5 0
2017-12-11 08:45:00 0.0 74 0.2 0.0 2.1 0
2017-12-11 08:40:00 0.0 111 0.6 0.0 5.2 0
2017-12-11 08:35:00 0.0 116 0.2 0.0 2.6 0
2017-12-11 08:30:00 0.0 119 0.2 0.0 2.0 0
2017-12-11 08:25:00 0.0 115 0.2 0.0 2.7 0
2017-12-11 08:20:00 0.0 68 0.2 0.0 3.5 0
2017-12-11 08:15:00 0.0 228 0.3 0.0 6.0 0
2017-12-11 08:10:00 0.0 142 0.1 0.0 1.2 0
2017-12-11 08:05:00 0.0 138 0.4 0.6 2.3 0
2017-12-11 08:00:00 0.0 226 0.4 0.4 3.3 0
2017-12-11 07:55:00 0.0 193 0.3 0.0 3.0 0
2017-12-11 07:50:00 0.0 289 0.2 0.0 1.8 0
2017-12-11 07:45:00 0.0 0 0.0 0.0 0.0 0
2017-12-11 07:40:00 0.0 101 0.6 0.2 3.5 0
2017-12-11 07:35:00 0.0 84 0.2 0.0 3.7 0
2017-12-11 07:30:00 0.0 292 0.7 0.0 6.7 0
2017-12-11 07:25:00 0.0 258 2.0 4.5 9.7 0
2017-12-11 07:20:00 0.0 284 1.9 4.8 8.9 0
2017-12-11 07:15:00 0.0 306 1.6 3.3 7.7 0
2017-12-11 07:10:00 0.0 260 1.9 5.2 8.4 0
2017-12-11 07:05:00 0.0 259 1.9 4.0 10.2 0
2017-12-11 07:00:00 0.0 258 2.2 6.1 9.9 0
2017-12-11 06:55:00 0.0 261 1.0 0.2 9.0 0
2017-12-11 06:50:00 0.0 121 0.6 0.2 4.8 0
2017-12-11 06:45:00 0.0 100 0.2 0.0 1.5 0
2017-12-11 06:40:00 0.0 103 0.6 0.0 6.1 0
2017-12-11 06:35:00 0.0 296 0.8 0.0 7.1 0
2017-12-11 06:30:00 0.0 265 0.6 0.2 5.6 0
2017-12-11 06:25:00 0.0 311 0.1 0.0 3.4 0
2017-12-11 06:20:00 0.0 99 0.0 0.0 0.6 0
2017-12-11 06:15:00 0.0 49 0.1 0.0 0.7 0
2017-12-11 06:10:00 0.0 88 0.1 0.1 0.7 0
2017-12-11 06:05:00 0.0 91 0.2 0.0 2.1 0
2017-12-11 06:00:00 0.0 113 0.3 0.0 3.1 0
2017-12-11 05:55:00 0.0 132 0.5 0.6 2.8 0
2017-12-11 05:50:00 0.0 117 0.4 0.7 2.5 0
2017-12-11 05:45:00 0.0 117 0.3 0.1 1.6 0
2017-12-11 05:40:00 0.0 105 0.2 0.1 1.5 0
2017-12-11 05:35:00 0.0 103 0.1 0.0 1.5 0
2017-12-11 05:30:00 0.0 130 0.0 0.0 0.4 0
2017-12-11 05:25:00 0.0 46 0.0 0.0 0.8 0
2017-12-11 05:20:00 0.0 111 0.2 0.0 1.7 0
2017-12-11 05:15:00 0.0 128 0.2 0.0 1.9 0
2017-12-11 05:10:00 0.0 107 0.2 0.3 1.3 0
2017-12-11 05:05:00 0.0 91 0.2 0.0 1.7 0
2017-12-11 05:00:00 0.0 204 0.1 0.0 1.7 0
2017-12-11 04:55:00 0.0 211 0.4 0.2 2.7 0
2017-12-11 04:50:00 0.0 184 0.5 0.8 2.7 0
2017-12-11 04:45:00 0.0 212 0.2 0.1 1.8 0
2017-12-11 04:40:00 0.0 184 0.0 0.0 0.5 0
2017-12-11 04:35:00 0.0 302 0.1 0.0 1.6 0
2017-12-11 04:30:00 0.0 111 0.2 0.1 1.9 0
2017-12-11 04:25:00 0.0 350 0.3 0.0 2.2 0
2017-12-11 04:20:00 0.0 93 0.0 0.0 1.1 0
2017-12-11 04:15:00 0.0 52 0.1 0.0 1.5 0
2017-12-11 04:10:00 0.0 27 0.4 0.0 2.7 0
2017-12-11 04:05:00 0.0 39 0.4 0.2 3.0 0
2017-12-11 04:00:00 0.0 135 0.6 0.6 3.5 0
2017-12-11 03:55:00 0.0 117 0.5 0.7 3.1 0
2017-12-11 03:50:00 0.0 106 1.7 3.7 10.2 0
2017-12-11 03:45:00 0.0 130 2.0 3.6 9.1 0
2017-12-11 03:40:00 0.0 127 1.6 3.0 8.3 0
2017-12-11 03:35:00 0.0 129 1.5 1.7 8.5 0
2017-12-11 03:30:00 0.0 128 0.9 1.1 5.2 0
2017-12-11 03:25:00 0.0 123 0.1 0.0 2.0 0
2017-12-11 03:20:00 0.0 220 0.1 0.0 1.0 0
2017-12-11 03:15:00 0.0 218 0.4 0.0 3.6 0
2017-12-11 03:10:00 0.0 155 0.2 0.0 3.1 0
2017-12-11 03:05:00 0.0 110 0.3 0.0 2.3 0
2017-12-11 03:00:00 0.0 111 0.2 0.1 1.7 0
2017-12-11 02:55:00 0.0 110 0.2 0.0 2.2 0
2017-12-11 02:50:00 0.0 94 0.3 0.0 4.1 0
2017-12-11 02:45:00 0.0 41 0.2 0.0 3.1 0
2017-12-11 02:40:00 0.0 98 0.7 0.0 5.4 0
2017-12-11 02:35:00 0.0 128 1.0 1.8 6.1 0
2017-12-11 02:30:00 0.0 93 1.3 1.2 6.9 0
2017-12-11 02:25:00 0.0 118 1.1 0.6 9.4 0
2017-12-11 02:20:00 0.0 290 2.1 5.4 9.9 0
2017-12-11 02:15:00 0.0 280 2.0 4.3 10.4 0
2017-12-11 02:10:00 0.0 262 2.9 6.1 13.2 0
2017-12-11 02:05:00 0.0 290 3.7 10.4 16.1 0
2017-12-11 02:00:00 0.0 293 3.4 10.3 16.0 0
2017-12-11 01:55:00 0.0 271 3.7 9.2 16.9 0
2017-12-11 01:50:00 0.0 293 3.1 8.4 14.1 0
2017-12-11 01:45:00 0.0 289 2.5 6.0 11.9 0
www.zamg.ac.at

klagenfurt@zamg.ac.at